sensor_id;sensor_type;location;lat;lon;timestamp;P1;durP1;ratioP1;P2;durP2;ratioP2
69991;SDS011;57332;51.320;-0.580;2023-10-31T00:00:51;4.35;;;2.38;;
69991;SDS011;57332;51.320;-0.580;2023-10-31T00:03:18;5.13;;;2.85;;
69991;SDS011;57332;51.320;-0.580;2023-10-31T00:05:45;4.28;;;2.53;;
69991;SDS011;57332;51.320;-0.580;2023-10-31T00:08:12;7.05;;;2.40;;
69991;SDS011;57332;51.320;-0.580;2023-10-31T00:10:39;4.45;;;2.10;;
69991;SDS011;57332;51.320;-0.580;2023-10-31T00:13:06;5.32;;;2.78;;
69991;SDS011;57332;51.320;-0.580;2023-10-31T00:15:32;5.03;;;1.95;;
69991;SDS011;57332;51.320;-0.580;2023-10-31T00:18:03;5.82;;;1.95;;
69991;SDS011;57332;51.320;-0.580;2023-10-31T00:20:30;4.43;;;1.85;;
69991;SDS011;57332;51.320;-0.580;2023-10-31T00:22:57;3.88;;;2.00;;
69991;SDS011;57332;51.320;-0.580;2023-10-31T00:25:24;4.25;;;2.03;;
69991;SDS011;57332;51.320;-0.580;2023-10-31T00:27:51;3.97;;;2.15;;
69991;SDS011;57332;51.320;-0.580;2023-10-31T00:30:18;4.38;;;2.17;;
69991;SDS011;57332;51.320;-0.580;2023-10-31T00:32:45;5.20;;;1.80;;
69991;SDS011;57332;51.320;-0.580;2023-10-31T00:35:12;4.30;;;2.35;;
69991;SDS011;57332;51.320;-0.580;2023-10-31T00:37:39;4.65;;;1.92;;
69991;SDS011;57332;51.320;-0.580;2023-10-31T00:40:06;7.80;;;3.15;;
69991;SDS011;57332;51.320;-0.580;2023-10-31T00:42:33;7.22;;;3.38;;
69991;SDS011;57332;51.320;-0.580;2023-10-31T00:45:00;10.27;;;3.92;;
69991;SDS011;57332;51.320;-0.580;2023-10-31T00:47:27;13.80;;;5.18;;
69991;SDS011;57332;51.320;-0.580;2023-10-31T00:49:54;13.50;;;4.78;;
69991;SDS011;57332;51.320;-0.580;2023-10-31T00:52:21;15.48;;;5.15;;
69991;SDS011;57332;51.320;-0.580;2023-10-31T00:54:48;13.10;;;4.38;;
69991;SDS011;57332;51.320;-0.580;2023-10-31T00:57:15;11.45;;;4.03;;
69991;SDS011;57332;51.320;-0.580;2023-10-31T00:59:42;11.70;;;4.18;;
69991;SDS011;57332;51.320;-0.580;2023-10-31T01:02:09;15.13;;;3.70;;
69991;SDS011;57332;51.320;-0.580;2023-10-31T01:04:36;7.53;;;3.58;;
69991;SDS011;57332;51.320;-0.580;2023-10-31T01:07:04;7.85;;;3.28;;
69991;SDS011;57332;51.320;-0.580;2023-10-31T01:09:31;8.23;;;2.75;;
69991;SDS011;57332;51.320;-0.580;2023-10-31T01:11:58;6.75;;;3.20;;
69991;SDS011;57332;51.320;-0.580;2023-10-31T01:14:25;9.88;;;3.60;;
69991;SDS011;57332;51.320;-0.580;2023-10-31T01:16:51;10.35;;;4.45;;
69991;SDS011;57332;51.320;-0.580;2023-10-31T01:19:18;6.22;;;3.08;;
69991;SDS011;57332;51.320;-0.580;2023-10-31T01:21:45;9.90;;;3.92;;
69991;SDS011;57332;51.320;-0.580;2023-10-31T01:24:12;9.70;;;3.60;;
69991;SDS011;57332;51.320;-0.580;2023-10-31T01:26:39;6.28;;;3.15;;
69991;SDS011;57332;51.320;-0.580;2023-10-31T01:29:06;7.13;;;3.42;;
69991;SDS011;57332;51.320;-0.580;2023-10-31T01:31:33;8.63;;;3.40;;
69991;SDS011;57332;51.320;-0.580;2023-10-31T01:34:21;12.05;;;4.13;;
69991;SDS011;57332;51.320;-0.580;2023-10-31T01:36:48;6.15;;;2.70;;
69991;SDS011;57332;51.320;-0.580;2023-10-31T01:39:15;7.00;;;3.20;;
69991;SDS011;57332;51.320;-0.580;2023-10-31T01:41:42;8.73;;;3.10;;
69991;SDS011;57332;51.320;-0.580;2023-10-31T01:44:09;6.70;;;2.88;;
69991;SDS011;57332;51.320;-0.580;2023-10-31T01:46:36;8.88;;;3.00;;
69991;SDS011;57332;51.320;-0.580;2023-10-31T01:49:03;4.53;;;2.10;;
69991;SDS011;57332;51.320;-0.580;2023-10-31T01:51:30;4.70;;;2.17;;
69991;SDS011;57332;51.320;-0.580;2023-10-31T01:53:57;5.78;;;2.35;;
69991;SDS011;57332;51.320;-0.580;2023-10-31T01:56:24;6.88;;;2.20;;
69991;SDS011;57332;51.320;-0.580;2023-10-31T01:58:52;4.72;;;2.17;;
69991;SDS011;57332;51.320;-0.580;2023-10-31T02:01:19;4.57;;;2.80;;
69991;SDS011;57332;51.320;-0.580;2023-10-31T02:03:46;4.60;;;1.95;;
69991;SDS011;57332;51.320;-0.580;2023-10-31T02:06:13;4.13;;;2.28;;
69991;SDS011;57332;51.320;-0.580;2023-10-31T02:08:40;5.32;;;1.98;;
69991;SDS011;57332;51.320;-0.580;2023-10-31T02:11:09;4.40;;;2.15;;
69991;SDS011;57332;51.320;-0.580;2023-10-31T02:13:37;5.28;;;1.92;;
69991;SDS011;57332;51.320;-0.580;2023-10-31T02:16:04;6.20;;;2.33;;
69991;SDS011;57332;51.320;-0.580;2023-10-31T02:18:33;5.43;;;2.40;;
69991;SDS011;57332;51.320;-0.580;2023-10-31T02:21:00;6.78;;;2.08;;
69991;SDS011;57332;51.320;-0.580;2023-10-31T02:23:29;3.17;;;1.60;;
69991;SDS011;57332;51.320;-0.580;2023-10-31T02:25:56;6.78;;;2.20;;
69991;SDS011;57332;51.320;-0.580;2023-10-31T02:28:23;5.55;;;2.28;;
69991;SDS011;57332;51.320;-0.580;2023-10-31T02:30:54;4.10;;;1.80;;
69991;SDS011;57332;51.320;-0.580;2023-10-31T02:33:21;4.50;;;2.22;;
69991;SDS011;57332;51.320;-0.580;2023-10-31T02:35:48;3.58;;;1.70;;
69991;SDS011;57332;51.320;-0.580;2023-10-31T02:38:15;5.75;;;2.03;;
69991;SDS011;57332;51.320;-0.580;2023-10-31T02:40:42;4.55;;;2.08;;
69991;SDS011;57332;51.320;-0.580;2023-10-31T02:43:09;5.13;;;2.10;;
69991;SDS011;57332;51.320;-0.580;2023-10-31T02:45:36;5.55;;;2.10;;
69991;SDS011;57332;51.320;-0.580;2023-10-31T02:48:03;6.50;;;2.88;;
69991;SDS011;57332;51.320;-0.580;2023-10-31T02:50:30;5.68;;;2.25;;
69991;SDS011;57332;51.320;-0.580;2023-10-31T02:52:57;5.15;;;1.88;;
69991;SDS011;57332;51.320;-0.580;2023-10-31T02:55:24;7.82;;;2.33;;
69991;SDS011;57332;51.320;-0.580;2023-10-31T02:57:51;4.40;;;1.98;;
69991;SDS011;57332;51.320;-0.580;2023-10-31T03:00:18;5.15;;;2.10;;
69991;SDS011;57332;51.320;-0.580;2023-10-31T03:02:45;5.57;;;2.00;;
69991;SDS011;57332;51.320;-0.580;2023-10-31T03:05:12;3.78;;;1.83;;
69991;SDS011;57332;51.320;-0.580;2023-10-31T03:07:39;5.88;;;2.63;;
69991;SDS011;57332;51.320;-0.580;2023-10-31T03:10:06;5.00;;;2.00;;
69991;SDS011;57332;51.320;-0.580;2023-10-31T03:12:33;4.65;;;2.10;;
69991;SDS011;57332;51.320;-0.580;2023-10-31T03:15:00;6.60;;;2.80;;
69991;SDS011;57332;51.320;-0.580;2023-10-31T03:17:27;5.55;;;2.60;;
69991;SDS011;57332;51.320;-0.580;2023-10-31T03:19:55;6.50;;;2.60;;
69991;SDS011;57332;51.320;-0.580;2023-10-31T03:22:22;6.25;;;2.67;;
69991;SDS011;57332;51.320;-0.580;2023-10-31T03:24:49;7.82;;;2.47;;
69991;SDS011;57332;51.320;-0.580;2023-10-31T03:27:16;7.50;;;2.83;;
69991;SDS011;57332;51.320;-0.580;2023-10-31T03:29:42;5.22;;;2.20;;
69991;SDS011;57332;51.320;-0.580;2023-10-31T03:32:09;5.35;;;2.47;;
69991;SDS011;57332;51.320;-0.580;2023-10-31T03:34:36;4.28;;;2.28;;
69991;SDS011;57332;51.320;-0.580;2023-10-31T03:37:04;4.30;;;2.20;;
69991;SDS011;57332;51.320;-0.580;2023-10-31T03:39:31;5.70;;;2.35;;
69991;SDS011;57332;51.320;-0.580;2023-10-31T03:41:58;6.22;;;2.38;;
69991;SDS011;57332;51.320;-0.580;2023-10-31T03:44:25;4.93;;;2.35;;
69991;SDS011;57332;51.320;-0.580;2023-10-31T03:46:52;4.22;;;2.00;;
69991;SDS011;57332;51.320;-0.580;2023-10-31T03:49:18;4.60;;;2.10;;
69991;SDS011;57332;51.320;-0.580;2023-10-31T03:51:45;4.97;;;2.10;;
69991;SDS011;57332;51.320;-0.580;2023-10-31T03:54:13;4.63;;;2.10;;
69991;SDS011;57332;51.320;-0.580;2023-10-31T03:56:40;5.78;;;2.88;;
69991;SDS011;57332;51.320;-0.580;2023-10-31T03:59:07;4.63;;;2.03;;
69991;SDS011;57332;51.320;-0.580;2023-10-31T04:01:34;4.03;;;2.08;;
69991;SDS011;57332;51.320;-0.580;2023-10-31T04:04:01;3.63;;;2.35;;
69991;SDS011;57332;51.320;-0.580;2023-10-31T04:06:29;5.25;;;2.40;;
69991;SDS011;57332;51.320;-0.580;2023-10-31T04:08:55;4.32;;;1.92;;
69991;SDS011;57332;51.320;-0.580;2023-10-31T04:11:22;3.95;;;2.30;;
69991;SDS011;57332;51.320;-0.580;2023-10-31T04:13:49;4.80;;;2.20;;
69991;SDS011;57332;51.320;-0.580;2023-10-31T04:16:16;5.10;;;2.47;;
69991;SDS011;57332;51.320;-0.580;2023-10-31T04:18:43;4.55;;;2.50;;
69991;SDS011;57332;51.320;-0.580;2023-10-31T04:21:10;4.53;;;2.35;;
69991;SDS011;57332;51.320;-0.580;2023-10-31T04:23:37;4.25;;;2.00;;
69991;SDS011;57332;51.320;-0.580;2023-10-31T04:26:05;4.22;;;2.25;;
69991;SDS011;57332;51.320;-0.580;2023-10-31T04:28:32;4.40;;;2.33;;
69991;SDS011;57332;51.320;-0.580;2023-10-31T04:30:59;4.90;;;2.22;;
69991;SDS011;57332;51.320;-0.580;2023-10-31T04:33:26;5.43;;;2.30;;
69991;SDS011;57332;51.320;-0.580;2023-10-31T04:35:53;4.60;;;2.28;;
69991;SDS011;57332;51.320;-0.580;2023-10-31T04:38:20;4.72;;;2.30;;
69991;SDS011;57332;51.320;-0.580;2023-10-31T04:40:47;4.57;;;2.13;;
69991;SDS011;57332;51.320;-0.580;2023-10-31T04:43:13;4.88;;;2.85;;
69991;SDS011;57332;51.320;-0.580;2023-10-31T04:45:40;7.07;;;2.38;;
69991;SDS011;57332;51.320;-0.580;2023-10-31T04:48:08;5.82;;;2.03;;
69991;SDS011;57332;51.320;-0.580;2023-10-31T04:50:35;4.90;;;2.30;;
69991;SDS011;57332;51.320;-0.580;2023-10-31T04:53:02;4.07;;;2.20;;
69991;SDS011;57332;51.320;-0.580;2023-10-31T04:55:29;6.00;;;2.47;;
69991;SDS011;57332;51.320;-0.580;2023-10-31T04:57:56;5.07;;;2.70;;
69991;SDS011;57332;51.320;-0.580;2023-10-31T05:00:23;5.05;;;2.50;;
69991;SDS011;57332;51.320;-0.580;2023-10-31T05:02:50;3.83;;;2.00;;
69991;SDS011;57332;51.320;-0.580;2023-10-31T05:05:17;5.47;;;2.15;;
69991;SDS011;57332;51.320;-0.580;2023-10-31T05:07:44;5.38;;;1.92;;
69991;SDS011;57332;51.320;-0.580;2023-10-31T05:10:11;4.38;;;2.63;;
69991;SDS011;57332;51.320;-0.580;2023-10-31T05:12:38;4.57;;;2.28;;
69991;SDS011;57332;51.320;-0.580;2023-10-31T05:15:05;6.97;;;2.08;;
69991;SDS011;57332;51.320;-0.580;2023-10-31T05:17:32;4.32;;;2.22;;
69991;SDS011;57332;51.320;-0.580;2023-10-31T05:19:59;5.28;;;2.40;;
69991;SDS011;57332;51.320;-0.580;2023-10-31T05:22:26;5.07;;;2.45;;
69991;SDS011;57332;51.320;-0.580;2023-10-31T05:24:53;6.07;;;2.30;;
69991;SDS011;57332;51.320;-0.580;2023-10-31T05:27:20;5.53;;;2.63;;
69991;SDS011;57332;51.320;-0.580;2023-10-31T05:29:47;4.10;;;2.38;;
69991;SDS011;57332;51.320;-0.580;2023-10-31T05:32:14;5.80;;;2.58;;
69991;SDS011;57332;51.320;-0.580;2023-10-31T05:34:41;4.63;;;2.38;;
69991;SDS011;57332;51.320;-0.580;2023-10-31T05:37:08;5.03;;;1.98;;
69991;SDS011;57332;51.320;-0.580;2023-10-31T05:39:35;4.68;;;2.53;;
69991;SDS011;57332;51.320;-0.580;2023-10-31T05:42:04;5.47;;;2.00;;
69991;SDS011;57332;51.320;-0.580;2023-10-31T05:44:31;6.35;;;2.42;;
69991;SDS011;57332;51.320;-0.580;2023-10-31T05:46:57;4.30;;;1.73;;
69991;SDS011;57332;51.320;-0.580;2023-10-31T05:49:24;7.68;;;2.00;;
69991;SDS011;57332;51.320;-0.580;2023-10-31T05:51:51;3.67;;;1.92;;
69991;SDS011;57332;51.320;-0.580;2023-10-31T05:54:19;4.15;;;2.38;;
69991;SDS011;57332;51.320;-0.580;2023-10-31T05:56:46;6.50;;;2.88;;
69991;SDS011;57332;51.320;-0.580;2023-10-31T05:59:13;6.35;;;2.25;;
69991;SDS011;57332;51.320;-0.580;2023-10-31T06:01:40;5.22;;;2.28;;
69991;SDS011;57332;51.320;-0.580;2023-10-31T06:04:07;4.53;;;2.28;;
69991;SDS011;57332;51.320;-0.580;2023-10-31T06:06:37;6.50;;;2.20;;
69991;SDS011;57332;51.320;-0.580;2023-10-31T06:09:04;4.03;;;1.90;;
69991;SDS011;57332;51.320;-0.580;2023-10-31T06:11:31;5.35;;;1.90;;
69991;SDS011;57332;51.320;-0.580;2023-10-31T06:13:58;4.68;;;2.38;;
69991;SDS011;57332;51.320;-0.580;2023-10-31T06:16:26;5.57;;;2.55;;
69991;SDS011;57332;51.320;-0.580;2023-10-31T06:18:53;5.53;;;2.15;;
69991;SDS011;57332;51.320;-0.580;2023-10-31T06:21:19;4.88;;;2.35;;
69991;SDS011;57332;51.320;-0.580;2023-10-31T06:23:47;5.00;;;2.20;;
69991;SDS011;57332;51.320;-0.580;2023-10-31T06:26:14;6.72;;;2.38;;
69991;SDS011;57332;51.320;-0.580;2023-10-31T06:28:41;5.80;;;2.38;;
69991;SDS011;57332;51.320;-0.580;2023-10-31T06:31:23;5.47;;;2.88;;
69991;SDS011;57332;51.320;-0.580;2023-10-31T06:33:50;3.70;;;2.35;;
69991;SDS011;57332;51.320;-0.580;2023-10-31T06:36:17;6.13;;;2.80;;
69991;SDS011;57332;51.320;-0.580;2023-10-31T06:38:44;4.28;;;2.00;;
69991;SDS011;57332;51.320;-0.580;2023-10-31T06:41:11;6.00;;;2.50;;
69991;SDS011;57332;51.320;-0.580;2023-10-31T06:43:38;5.80;;;2.90;;
69991;SDS011;57332;51.320;-0.580;2023-10-31T06:46:05;6.85;;;2.55;;
69991;SDS011;57332;51.320;-0.580;2023-10-31T06:48:34;7.35;;;2.97;;
69991;SDS011;57332;51.320;-0.580;2023-10-31T06:51:01;6.32;;;2.85;;
69991;SDS011;57332;51.320;-0.580;2023-10-31T06:53:28;5.35;;;2.58;;
69991;SDS011;57332;51.320;-0.580;2023-10-31T06:55:55;7.90;;;2.85;;
69991;SDS011;57332;51.320;-0.580;2023-10-31T06:58:22;4.97;;;2.33;;
69991;SDS011;57332;51.320;-0.580;2023-10-31T07:00:49;4.53;;;2.50;;
69991;SDS011;57332;51.320;-0.580;2023-10-31T07:03:16;4.63;;;2.20;;
69991;SDS011;57332;51.320;-0.580;2023-10-31T07:05:43;7.68;;;2.72;;
69991;SDS011;57332;51.320;-0.580;2023-10-31T07:08:10;4.43;;;2.45;;
69991;SDS011;57332;51.320;-0.580;2023-10-31T07:10:37;7.43;;;2.70;;
69991;SDS011;57332;51.320;-0.580;2023-10-31T07:13:04;6.68;;;2.97;;
69991;SDS011;57332;51.320;-0.580;2023-10-31T07:15:31;6.88;;;2.53;;
69991;SDS011;57332;51.320;-0.580;2023-10-31T07:17:57;5.80;;;2.75;;
69991;SDS011;57332;51.320;-0.580;2023-10-31T07:20:24;6.05;;;2.58;;
69991;SDS011;57332;51.320;-0.580;2023-10-31T07:22:51;5.38;;;2.30;;
69991;SDS011;57332;51.320;-0.580;2023-10-31T07:25:19;5.78;;;2.92;;
69991;SDS011;57332;51.320;-0.580;2023-10-31T07:27:45;5.05;;;2.50;;
69991;SDS011;57332;51.320;-0.580;2023-10-31T07:30:13;4.78;;;2.47;;
69991;SDS011;57332;51.320;-0.580;2023-10-31T07:32:40;6.80;;;3.28;;
69991;SDS011;57332;51.320;-0.580;2023-10-31T07:35:07;4.95;;;2.45;;
69991;SDS011;57332;51.320;-0.580;2023-10-31T07:37:34;4.10;;;2.53;;
69991;SDS011;57332;51.320;-0.580;2023-10-31T07:40:03;5.30;;;2.22;;
69991;SDS011;57332;51.320;-0.580;2023-10-31T07:42:31;5.88;;;2.35;;
69991;SDS011;57332;51.320;-0.580;2023-10-31T07:44:57;2.70;;;1.17;;
69991;SDS011;57332;51.320;-0.580;2023-10-31T07:47:24;2.65;;;1.20;;
69991;SDS011;57332;51.320;-0.580;2023-10-31T07:49:51;3.70;;;1.50;;
69991;SDS011;57332;51.320;-0.580;2023-10-31T07:52:20;4.53;;;1.50;;
69991;SDS011;57332;51.320;-0.580;2023-10-31T07:54:47;5.97;;;1.90;;
69991;SDS011;57332;51.320;-0.580;2023-10-31T07:57:14;4.80;;;1.83;;
69991;SDS011;57332;51.320;-0.580;2023-10-31T07:59:41;3.10;;;1.40;;
69991;SDS011;57332;51.320;-0.580;2023-10-31T08:02:07;3.45;;;1.83;;
69991;SDS011;57332;51.320;-0.580;2023-10-31T08:04:34;5.97;;;1.98;;
69991;SDS011;57332;51.320;-0.580;2023-10-31T08:07:01;4.15;;;1.85;;
69991;SDS011;57332;51.320;-0.580;2023-10-31T08:09:29;5.00;;;1.83;;
69991;SDS011;57332;51.320;-0.580;2023-10-31T08:11:56;3.92;;;1.85;;
69991;SDS011;57332;51.320;-0.580;2023-10-31T08:14:22;5.57;;;1.80;;
69991;SDS011;57332;51.320;-0.580;2023-10-31T08:16:52;3.97;;;1.52;;
69991;SDS011;57332;51.320;-0.580;2023-10-31T08:19:19;6.65;;;2.05;;
69991;SDS011;57332;51.320;-0.580;2023-10-31T08:21:46;4.53;;;2.28;;
69991;SDS011;57332;51.320;-0.580;2023-10-31T08:24:13;5.47;;;2.25;;
69991;SDS011;57332;51.320;-0.580;2023-10-31T08:26:40;4.20;;;1.58;;
69991;SDS011;57332;51.320;-0.580;2023-10-31T08:29:07;4.40;;;1.73;;
69991;SDS011;57332;51.320;-0.580;2023-10-31T08:31:34;5.68;;;2.22;;
69991;SDS011;57332;51.320;-0.580;2023-10-31T08:34:01;3.15;;;1.60;;
69991;SDS011;57332;51.320;-0.580;2023-10-31T08:36:28;4.15;;;1.60;;
69991;SDS011;57332;51.320;-0.580;2023-10-31T08:38:55;4.45;;;1.95;;
69991;SDS011;57332;51.320;-0.580;2023-10-31T08:41:22;3.78;;;1.63;;
69991;SDS011;57332;51.320;-0.580;2023-10-31T08:43:49;4.03;;;1.63;;
69991;SDS011;57332;51.320;-0.580;2023-10-31T08:46:16;4.82;;;1.98;;
69991;SDS011;57332;51.320;-0.580;2023-10-31T08:48:44;4.72;;;1.50;;
69991;SDS011;57332;51.320;-0.580;2023-10-31T08:51:11;4.35;;;1.60;;
69991;SDS011;57332;51.320;-0.580;2023-10-31T08:53:37;2.95;;;1.40;;
69991;SDS011;57332;51.320;-0.580;2023-10-31T08:56:04;3.63;;;1.60;;
69991;SDS011;57332;51.320;-0.580;2023-10-31T08:58:31;4.45;;;1.67;;
69991;SDS011;57332;51.320;-0.580;2023-10-31T09:00:58;3.05;;;1.60;;
69991;SDS011;57332;51.320;-0.580;2023-10-31T09:03:25;5.05;;;2.15;;
69991;SDS011;57332;51.320;-0.580;2023-10-31T09:05:52;4.15;;;1.67;;
69991;SDS011;57332;51.320;-0.580;2023-10-31T09:08:19;4.72;;;2.00;;
69991;SDS011;57332;51.320;-0.580;2023-10-31T09:10:46;4.15;;;1.77;;
69991;SDS011;57332;51.320;-0.580;2023-10-31T09:13:13;5.15;;;2.20;;
69991;SDS011;57332;51.320;-0.580;2023-10-31T09:15:40;6.20;;;2.42;;
69991;SDS011;57332;51.320;-0.580;2023-10-31T09:18:08;5.25;;;2.30;;
69991;SDS011;57332;51.320;-0.580;2023-10-31T09:20:35;7.35;;;2.25;;
69991;SDS011;57332;51.320;-0.580;2023-10-31T09:23:02;4.72;;;2.00;;
69991;SDS011;57332;51.320;-0.580;2023-10-31T09:25:29;5.93;;;1.70;;
69991;SDS011;57332;51.320;-0.580;2023-10-31T09:27:57;5.72;;;2.05;;
69991;SDS011;57332;51.320;-0.580;2023-10-31T09:30:26;4.55;;;1.42;;
69991;SDS011;57332;51.320;-0.580;2023-10-31T09:32:53;3.05;;;1.40;;
69991;SDS011;57332;51.320;-0.580;2023-10-31T09:35:20;4.13;;;1.50;;
69991;SDS011;57332;51.320;-0.580;2023-10-31T09:37:47;2.65;;;1.30;;
69991;SDS011;57332;51.320;-0.580;2023-10-31T09:40:15;3.67;;;1.10;;
69991;SDS011;57332;51.320;-0.580;2023-10-31T09:42:46;2.47;;;0.90;;
69991;SDS011;57332;51.320;-0.580;2023-10-31T09:45:13;1.50;;;0.82;;
69991;SDS011;57332;51.320;-0.580;2023-10-31T09:47:40;1.85;;;1.00;;
69991;SDS011;57332;51.320;-0.580;2023-10-31T09:50:08;2.60;;;1.10;;
69991;SDS011;57332;51.320;-0.580;2023-10-31T09:52:36;3.28;;;0.70;;
69991;SDS011;57332;51.320;-0.580;2023-10-31T09:55:03;2.60;;;0.80;;
69991;SDS011;57332;51.320;-0.580;2023-10-31T09:57:31;5.63;;;1.00;;
69991;SDS011;57332;51.320;-0.580;2023-10-31T09:59:58;1.92;;;0.85;;
69991;SDS011;57332;51.320;-0.580;2023-10-31T10:02:25;5.63;;;0.93;;
69991;SDS011;57332;51.320;-0.580;2023-10-31T10:04:52;2.00;;;0.88;;
69991;SDS011;57332;51.320;-0.580;2023-10-31T10:07:20;3.95;;;0.95;;
69991;SDS011;57332;51.320;-0.580;2023-10-31T10:09:48;1.38;;;0.75;;
69991;SDS011;57332;51.320;-0.580;2023-10-31T10:12:16;3.13;;;0.77;;
69991;SDS011;57332;51.320;-0.580;2023-10-31T10:14:46;1.40;;;0.77;;
69991;SDS011;57332;51.320;-0.580;2023-10-31T10:17:17;1.13;;;0.65;;
69991;SDS011;57332;51.320;-0.580;2023-10-31T10:19:44;4.22;;;0.80;;
69991;SDS011;57332;51.320;-0.580;2023-10-31T10:22:11;1.33;;;0.60;;
69991;SDS011;57332;51.320;-0.580;2023-10-31T10:24:40;1.88;;;0.60;;
69991;SDS011;57332;51.320;-0.580;2023-10-31T10:27:08;4.13;;;0.80;;
69991;SDS011;57332;51.320;-0.580;2023-10-31T10:29:38;2.60;;;0.70;;
69991;SDS011;57332;51.320;-0.580;2023-10-31T10:32:05;5.55;;;0.90;;
69991;SDS011;57332;51.320;-0.580;2023-10-31T10:34:34;1.48;;;0.60;;
69991;SDS011;57332;51.320;-0.580;2023-10-31T10:37:04;1.70;;;0.80;;
69991;SDS011;57332;51.320;-0.580;2023-10-31T10:39:32;3.25;;;0.90;;
69991;SDS011;57332;51.320;-0.580;2023-10-31T10:42:01;2.03;;;1.05;;
69991;SDS011;57332;51.320;-0.580;2023-10-31T10:44:32;5.20;;;0.70;;
69991;SDS011;57332;51.320;-0.580;2023-10-31T10:47:01;3.47;;;0.80;;
69991;SDS011;57332;51.320;-0.580;2023-10-31T10:49:28;3.08;;;0.85;;
69991;SDS011;57332;51.320;-0.580;2023-10-31T10:51:59;4.45;;;0.88;;
69991;SDS011;57332;51.320;-0.580;2023-10-31T10:57:04;2.40;;;0.63;;
69991;SDS011;57332;51.320;-0.580;2023-10-31T10:59:38;1.70;;;0.57;;
69991;SDS011;57332;51.320;-0.580;2023-10-31T11:02:06;3.10;;;0.60;;
69991;SDS011;57332;51.320;-0.580;2023-10-31T11:04:36;2.35;;;0.68;;
69991;SDS011;57332;51.320;-0.580;2023-10-31T11:07:03;1.23;;;0.38;;
69991;SDS011;57332;51.320;-0.580;2023-10-31T11:09:31;1.63;;;0.70;;
69991;SDS011;57332;51.320;-0.580;2023-10-31T11:11:58;3.42;;;0.93;;
69991;SDS011;57332;51.320;-0.580;2023-10-31T11:14:25;0.90;;;0.40;;
69991;SDS011;57332;51.320;-0.580;2023-10-31T11:16:54;0.85;;;0.40;;
69991;SDS011;57332;51.320;-0.580;2023-10-31T11:19:22;2.28;;;0.60;;
69991;SDS011;57332;51.320;-0.580;2023-10-31T11:22:01;1.40;;;0.43;;
69991;SDS011;57332;51.320;-0.580;2023-10-31T11:24:31;0.95;;;0.40;;
69991;SDS011;57332;51.320;-0.580;2023-10-31T11:26:59;2.67;;;0.60;;
69991;SDS011;57332;51.320;-0.580;2023-10-31T11:29:27;1.98;;;0.60;;
69991;SDS011;57332;51.320;-0.580;2023-10-31T11:31:54;1.20;;;0.65;;
69991;SDS011;57332;51.320;-0.580;2023-10-31T11:34:22;2.13;;;0.60;;
69991;SDS011;57332;51.320;-0.580;2023-10-31T11:36:50;1.85;;;0.40;;
69991;SDS011;57332;51.320;-0.580;2023-10-31T11:39:21;1.08;;;0.63;;
69991;SDS011;57332;51.320;-0.580;2023-10-31T11:41:55;0.63;;;0.50;;
69991;SDS011;57332;51.320;-0.580;2023-10-31T11:44:23;1.40;;;0.38;;
69991;SDS011;57332;51.320;-0.580;2023-10-31T11:46:52;4.38;;;0.60;;
69991;SDS011;57332;51.320;-0.580;2023-10-31T11:52:15;2.28;;;0.50;;
69991;SDS011;57332;51.320;-0.580;2023-10-31T11:54:42;2.08;;;0.40;;
69991;SDS011;57332;51.320;-0.580;2023-10-31T11:57:10;4.25;;;0.75;;
69991;SDS011;57332;51.320;-0.580;2023-10-31T11:59:39;1.20;;;0.50;;
69991;SDS011;57332;51.320;-0.580;2023-10-31T12:02:16;1.30;;;0.70;;
69991;SDS011;57332;51.320;-0.580;2023-10-31T12:04:43;1.45;;;0.75;;
69991;SDS011;57332;51.320;-0.580;2023-10-31T12:07:11;0.60;;;0.40;;
69991;SDS011;57332;51.320;-0.580;2023-10-31T12:09:47;1.38;;;0.50;;
69991;SDS011;57332;51.320;-0.580;2023-10-31T12:12:14;1.10;;;0.63;;
69991;SDS011;57332;51.320;-0.580;2023-10-31T12:14:41;1.75;;;0.60;;
69991;SDS011;57332;51.320;-0.580;2023-10-31T12:17:08;1.20;;;0.70;;
69991;SDS011;57332;51.320;-0.580;2023-10-31T12:19:37;2.50;;;0.77;;
69991;SDS011;57332;51.320;-0.580;2023-10-31T12:22:12;3.35;;;0.85;;
69991;SDS011;57332;51.320;-0.580;2023-10-31T12:24:39;0.93;;;0.50;;
69991;SDS011;57332;51.320;-0.580;2023-10-31T12:27:05;1.52;;;0.60;;
69991;SDS011;57332;51.320;-0.580;2023-10-31T12:29:32;1.38;;;0.50;;
69991;SDS011;57332;51.320;-0.580;2023-10-31T12:31:59;1.05;;;0.50;;
69991;SDS011;57332;51.320;-0.580;2023-10-31T12:34:27;0.90;;;0.40;;
69991;SDS011;57332;51.320;-0.580;2023-10-31T12:36:53;1.55;;;0.55;;
69991;SDS011;57332;51.320;-0.580;2023-10-31T12:39:21;2.05;;;0.40;;
69991;SDS011;57332;51.320;-0.580;2023-10-31T12:41:49;0.70;;;0.28;;
69991;SDS011;57332;51.320;-0.580;2023-10-31T12:44:17;0.45;;;0.40;;
69991;SDS011;57332;51.320;-0.580;2023-10-31T12:49:18;2.42;;;0.60;;
69991;SDS011;57332;51.320;-0.580;2023-10-31T12:57:00;2.55;;;0.70;;
69991;SDS011;57332;51.320;-0.580;2023-10-31T12:59:28;2.03;;;0.50;;
69991;SDS011;57332;51.320;-0.580;2023-10-31T13:01:55;0.95;;;0.40;;
69991;SDS011;57332;51.320;-0.580;2023-10-31T13:04:28;0.60;;;0.50;;
69991;SDS011;57332;51.320;-0.580;2023-10-31T13:06:57;1.02;;;0.47;;
69991;SDS011;57332;51.320;-0.580;2023-10-31T13:09:27;1.45;;;0.60;;
69991;SDS011;57332;51.320;-0.580;2023-10-31T13:11:56;2.83;;;0.55;;
69991;SDS011;57332;51.320;-0.580;2023-10-31T13:14:23;2.67;;;0.90;;
69991;SDS011;57332;51.320;-0.580;2023-10-31T13:16:50;4.10;;;0.65;;
69991;SDS011;57332;51.320;-0.580;2023-10-31T13:19:17;1.83;;;0.60;;
69991;SDS011;57332;51.320;-0.580;2023-10-31T13:21:45;1.58;;;0.65;;
69991;SDS011;57332;51.320;-0.580;2023-10-31T13:24:12;2.60;;;0.73;;
69991;SDS011;57332;51.320;-0.580;2023-10-31T13:26:39;0.90;;;0.60;;
69991;SDS011;57332;51.320;-0.580;2023-10-31T13:29:06;1.95;;;0.75;;
69991;SDS011;57332;51.320;-0.580;2023-10-31T13:31:32;4.35;;;0.82;;
69991;SDS011;57332;51.320;-0.580;2023-10-31T13:33:59;2.25;;;0.80;;
69991;SDS011;57332;51.320;-0.580;2023-10-31T13:36:26;2.55;;;0.63;;
69991;SDS011;57332;51.320;-0.580;2023-10-31T13:38:53;1.42;;;0.70;;
69991;SDS011;57332;51.320;-0.580;2023-10-31T13:41:20;1.85;;;0.47;;
69991;SDS011;57332;51.320;-0.580;2023-10-31T13:43:47;1.00;;;0.50;;
69991;SDS011;57332;51.320;-0.580;2023-10-31T13:46:15;3.92;;;0.47;;
69991;SDS011;57332;51.320;-0.580;2023-10-31T13:48:42;1.38;;;0.38;;
69991;SDS011;57332;51.320;-0.580;2023-10-31T13:51:09;1.90;;;0.50;;
69991;SDS011;57332;51.320;-0.580;2023-10-31T13:53:36;1.10;;;0.60;;
69991;SDS011;57332;51.320;-0.580;2023-10-31T13:56:03;1.17;;;0.43;;
69991;SDS011;57332;51.320;-0.580;2023-10-31T13:58:30;1.65;;;0.47;;
69991;SDS011;57332;51.320;-0.580;2023-10-31T14:00:57;1.48;;;0.80;;
69991;SDS011;57332;51.320;-0.580;2023-10-31T14:03:24;5.07;;;1.45;;
69991;SDS011;57332;51.320;-0.580;2023-10-31T14:05:51;3.28;;;0.80;;
69991;SDS011;57332;51.320;-0.580;2023-10-31T14:08:18;3.95;;;0.98;;
69991;SDS011;57332;51.320;-0.580;2023-10-31T14:10:47;2.50;;;0.75;;
69991;SDS011;57332;51.320;-0.580;2023-10-31T14:13:15;2.40;;;0.98;;
69991;SDS011;57332;51.320;-0.580;2023-10-31T14:15:42;2.05;;;0.50;;
69991;SDS011;57332;51.320;-0.580;2023-10-31T14:18:10;0.95;;;0.50;;
69991;SDS011;57332;51.320;-0.580;2023-10-31T14:20:37;1.88;;;0.50;;
69991;SDS011;57332;51.320;-0.580;2023-10-31T14:23:06;2.25;;;0.52;;
69991;SDS011;57332;51.320;-0.580;2023-10-31T14:25:33;3.42;;;0.65;;
69991;SDS011;57332;51.320;-0.580;2023-10-31T14:28:01;1.05;;;0.45;;
69991;SDS011;57332;51.320;-0.580;2023-10-31T14:30:28;1.73;;;0.60;;
69991;SDS011;57332;51.320;-0.580;2023-10-31T14:32:55;1.63;;;0.60;;
69991;SDS011;57332;51.320;-0.580;2023-10-31T14:35:22;3.80;;;0.90;;
69991;SDS011;57332;51.320;-0.580;2023-10-31T14:37:49;2.85;;;0.88;;
69991;SDS011;57332;51.320;-0.580;2023-10-31T14:40:16;2.33;;;0.68;;
69991;SDS011;57332;51.320;-0.580;2023-10-31T14:42:43;4.05;;;0.90;;
69991;SDS011;57332;51.320;-0.580;2023-10-31T14:45:10;1.77;;;0.70;;
69991;SDS011;57332;51.320;-0.580;2023-10-31T14:47:37;3.03;;;0.60;;